• Join FlightAware (Why Join?)
  • Login
  • US Flag 
04:47PM EDT


 

Airport Tracker/Info


-or-


 

Live Flight TrackerFlight Track Log ✈ DAL3678 ✈ 16-Apr-2013 ✈ KMKE - KDTW

Flight Track Log - Related Links

Times and Time Zones

All times are in EDT time to prevent confusion due to time zone crossing. See the DAL3678 flight status page for this flight to view local times or setup timezone preferences in your user account.

Time Position Orientation Groundspeed Altitude Reporting Facility
EDT Latitude Longitude Course Direction KTS MPH feet Rate Location/Type
03:34PM 42.9500 -87.8833 80° East 136 157 1,400  Level KMKE
03:34PM 42.9539 -87.8531 80° East 171 197 2,000 1,920 Climbing Chicago Center
03:35PM 42.9553 -87.7714 89° East 211 243 4,500 2,340 Climbing Chicago Center
03:36PM 42.9567 -87.6689 89° East 258 297 6,900 2,520 Climbing Chicago Center
03:37PM 42.9592 -87.5306 89° East 315 362 9,700 2,340 Climbing Chicago Center
03:38PM 42.9631 -87.4019 88° East 341 392 11,700 1,500 Climbing Chicago Center
03:40PM 42.9600 -87.2667 92° East 364 419 12,900 1,080 Climbing Chicago Center
03:41PM 42.9814 -87.1142 79° East 410 472 14,000 1,080 Climbing Chicago Center
03:42PM 43.0106 -86.9544 76° East 431 496 15,200 1,260 Climbing Chicago Center
03:43PM 43.0400 -86.7903 76° East 443 510 16,700 1,260 Climbing Chicago Center
03:44PM 43.0706 -86.6214 76° East 456 525 17,900 1,380 Climbing Chicago Center
03:45PM 43.1064 -86.4167 76° East 461 531 19,600 1,500 Climbing Chicago Center
03:46PM 43.1361 -86.2428 77° East 465 535 21,000 1,140 Climbing Chicago Center
03:47PM 43.1667 -86.0647 77° East 470 541 22,000 960 Climbing Chicago Center
03:48PM 43.1867 -85.8781 82° East 476 548 23,000 480 Climbing Chicago Center
03:49PM 43.2036 -85.6900 83° East 487 560 23,000  Level Chicago Center
03:50PM 43.2231 -85.4969 82° East 506 582 23,000  Level Chicago Center
03:51PM 43.2422 -85.2992 82° East 520 598 23,000  Level Chicago Center
03:51PM 43.2450 -85.2122 87° East 506 582 23,000  Level Cleveland Center
03:52PM 43.2108 -85.0189 104° East 518 596 23,000 -300 Level Cleveland Center
03:53PM 43.1742 -84.8253 104° East 518 596 22,500 -1,080 Descending Cleveland Center
03:54PM 43.1392 -84.6381 104° East 512 589 20,900 -1,740 Descending Cleveland Center
03:55PM 43.1136 -84.4936 104° East 505 581 19,500 -1,800 Descending Chicago Center
03:56PM 43.0786 -84.3144 105° East 491 565 17,700 -1,260 Descending Chicago Center
03:57PM 43.0372 -84.1053 105° East 459 528 16,800 -960 Descending FAA TRACON SMA TRACON (SMA)
03:57PM 43.0272 -84.0542 105° East 456 525 16,300 -1,680 Descending FAA TRACON SMA TRACON (SMA)
03:58PM 43.0144 -83.9906 105° East 452 520 15,700 -1,800 Descending FAA TRACON SMA TRACON (SMA)
03:58PM 43.0044 -83.9394 105° East 452 520 15,100 -1,560 Descending FAA TRACON SMA TRACON (SMA)
03:58PM 42.9944 -83.8889 105° East 450 518 14,700 -1,560 Descending FAA TRACON SMA TRACON (SMA)
03:59PM 42.9764 -83.8444 119° Southeast 431 496 14,100 -1,800 Descending FAA TRACON SMA TRACON (SMA)
03:59PM 42.9444 -83.8031 137° Southeast 403 464 13,500 -1,680 Descending FAA TRACON SMA TRACON (SMA)
03:59PM 42.9156 -83.7831 153° Southeast 373 429 13,000 -1,500 Descending FAA TRACON SMA TRACON (SMA)
04:00PM 42.8872 -83.7656 156° South 361 415 12,500 -1,500 Descending FAA TRACON SMA TRACON (SMA)
04:00PM 42.8531 -83.7444 156° South 349 402 12,000 -600 Descending FAA TRACON SMA TRACON (SMA)
04:00PM 42.8278 -83.7303 158° South 323 372 12,100 -300 Climbing FAA TRACON SMA TRACON (SMA)
04:01PM 42.8039 -83.7153 155° Southeast 310 357 11,800 -1,680 Descending FAA TRACON SMA TRACON (SMA)
04:01PM 42.7739 -83.6972 156° South 307 353 11,000 -1,980 Descending FAA TRACON SMA TRACON (SMA)
04:01PM 42.7497 -83.6833 157° South 306 352 10,500 -1,500 Descending FAA TRACON SMA TRACON (SMA)
04:02PM 42.7264 -83.6689 156° South 302 348 10,000 -1,800 Descending FAA TRACON SMA TRACON (SMA)
04:02PM 42.6992 -83.6481 151° Southeast 310 357 9,300 -1,800 Descending FAA TRACON SMA TRACON (SMA)
04:02PM 42.6803 -83.6242 137° Southeast 299 344 8,800 -1,500 Descending FAA TRACON SMA TRACON (SMA)
04:03PM 42.6617 -83.5994 136° Southeast 303 349 8,300 -1,800 Descending FAA TRACON SMA TRACON (SMA)
04:03PM 42.6378 -83.5692 137° Southeast 303 349 7,600 -1,680 Descending FAA TRACON SMA TRACON (SMA)
04:03PM 42.6183 -83.5450 138° Southeast 305 351 7,200 -1,200 Descending FAA TRACON SMA TRACON (SMA)
04:04PM 42.5989 -83.5214 138° Southeast 303 349 6,800 -1,200 Descending FAA TRACON SMA TRACON (SMA)
04:04PM 42.5733 -83.4958 144° Southeast 302 348 6,400 -960 Descending Cleveland Center
04:05PM 42.5411 -83.4519 135° Southeast 293 337 6,000 -420 Descending Cleveland Center
04:05PM 42.5128 -83.4225 143° Southeast 302 348 6,000  Level Cleveland Center
04:06PM 42.4756 -83.3739 136° Southeast 291 335 6,000 -360 Level FAA TRACON SMA TRACON (SMA)
04:06PM 42.4569 -83.3519 139° Southeast 288 331 5,700 -1,080 Descending FAA TRACON SMA TRACON (SMA)
04:06PM 42.4342 -83.3247 139° Southeast 283 326 5,300 -1,200 Descending FAA TRACON SMA TRACON (SMA)
04:07PM 42.4158 -83.3042 140° Southeast 280 322 4,900 -1,500 Descending FAA TRACON SMA TRACON (SMA)
04:07PM 42.3933 -83.2839 146° Southeast 271 312 4,300 -1,500 Descending FAA TRACON SMA TRACON (SMA)
04:07PM 42.3719 -83.2811 175° South 259 298 3,900 -1,200 Descending FAA TRACON SMA TRACON (SMA)
04:08PM 42.3475 -83.2817 181° South 249 287 3,500 -1,380 Descending FAA TRACON SMA TRACON (SMA)
04:08PM 42.3247 -83.2925 199° South 227 261 3,000 -1,380 Descending FAA TRACON SMA TRACON (SMA)
04:08PM 42.3092 -83.3044 210° Southwest 214 246 2,600 -900 Descending FAA TRACON SMA TRACON (SMA)
04:09PM 42.2928 -83.3175 211° Southwest 190 219 2,400 -780 Descending FAA TRACON SMA TRACON (SMA)
04:09PM 42.2800 -83.3267 208° Southwest 177 204 2,100 -1,080 Descending FAA TRACON SMA TRACON (SMA)
04:09PM 42.2661 -83.3372 209° Southwest 150 173 1,700 -1,080 Descending FAA TRACON SMA TRACON (SMA)
04:10PM 42.2553 -83.3450 208° Southwest 147 169 1,400 -900 Descending FAA TRACON SMA TRACON (SMA)
04:10PM 42.2419 -83.3547 208° Southwest 148 170 1,100 -900 Descending FAA TRACON SMA TRACON (SMA)
04:10PM 42.2294 -83.3639 209° Southwest 144 166 800 -600 Descending FAA TRACON SMA TRACON (SMA)
04:11PM 42.2189 -83.3717 209° Southwest 137 158 700 -180 Descending FAA TRACON SMA TRACON (SMA)
04:11PM 42.2139 -83.3756 210° Southwest 82 94 700  Level FAA TRACON SMA TRACON (SMA)
04:11PM 42.2139 -83.3756 109° East 82 94 700  Level FAA TRACON SMA TRACON (SMA)
04:13PM 42.2000 -83.3500 90° East  Level FlightAware Approximate